createdAt,value
2023-03-06T00:01:01.942Z,13.35
2023-03-06T00:03:29.791Z,13.68
2023-03-06T00:05:58.867Z,13.27
2023-03-06T00:08:27.586Z,11.95
2023-03-06T00:10:56.620Z,12.43
2023-03-06T00:13:24.554Z,13.62
2023-03-06T00:15:52.439Z,11.98
2023-03-06T00:18:20.336Z,11.48
2023-03-06T00:20:47.817Z,12.40
2023-03-06T00:23:15.552Z,11.37
2023-03-06T00:25:44.744Z,10.50
2023-03-06T00:28:14.854Z,11.93
2023-03-06T00:30:43.709Z,11.82
2023-03-06T00:33:11.286Z,10.65
2023-03-06T00:35:39.988Z,12.60
2023-03-06T00:38:08.638Z,10.45
2023-03-06T00:40:36.378Z,10.27
2023-03-06T00:43:03.815Z,9.32
2023-03-06T00:45:31.635Z,12.07
2023-03-06T00:47:59.165Z,9.97
2023-03-06T00:50:27.686Z,10.38
2023-03-06T00:52:55.533Z,11.10
2023-03-06T00:55:25.467Z,12.50
2023-03-06T00:57:53.026Z,11.48
2023-03-06T01:00:21.061Z,13.17
2023-03-06T01:02:49.330Z,11.15
2023-03-06T01:05:17.046Z,10.68
2023-03-06T01:07:45.001Z,11.85
2023-03-06T01:10:12.891Z,9.88
2023-03-06T01:12:41.494Z,11.73
2023-03-06T01:15:11.194Z,8.95
2023-03-06T01:17:38.785Z,10.93
2023-03-06T01:20:06.940Z,9.13
2023-03-06T01:22:34.728Z,10.55
2023-03-06T01:25:02.240Z,8.93
2023-03-06T01:27:29.746Z,10.43
2023-03-06T01:29:57.761Z,10.60
2023-03-06T01:32:25.557Z,10.38
2023-03-06T01:34:53.229Z,11.02
2023-03-06T01:37:21.103Z,10.80
2023-03-06T01:39:48.735Z,11.32
2023-03-06T01:42:16.275Z,9.45
2023-03-06T01:45:01.549Z,11.85
2023-03-06T01:47:29.342Z,9.43
2023-03-06T01:49:59.185Z,9.67
2023-03-06T01:52:30.350Z,10.05
2023-03-06T01:55:06.152Z,10.32
2023-03-06T01:57:38.800Z,10.13
2023-03-06T02:00:16.181Z,9.45
2023-03-06T02:02:57.730Z,10.27
2023-03-06T02:05:25.248Z,8.50
2023-03-06T02:07:53.656Z,9.18
2023-03-06T02:10:22.010Z,12.02
2023-03-06T02:12:50.841Z,11.18
2023-03-06T02:15:21.600Z,10.47
2023-03-06T02:17:50.769Z,11.02
2023-03-06T02:20:43.673Z,10.50
2023-03-06T02:23:17.484Z,8.20
2023-03-06T02:25:47.545Z,10.07
2023-03-06T02:28:20.888Z,10.00
2023-03-06T02:30:51.587Z,12.13
2023-03-06T02:33:21.934Z,9.05
2023-03-06T02:36:04.079Z,8.98
2023-03-06T02:38:36.642Z,11.15
2023-03-06T02:41:07.345Z,10.87
2023-03-06T02:43:38.407Z,9.38
2023-03-06T02:46:06.691Z,8.50
2023-03-06T02:48:34.371Z,10.02
2023-03-06T02:51:02.347Z,8.75
2023-03-06T02:53:30.065Z,7.57
2023-03-06T02:55:59.640Z,10.30
2023-03-06T02:58:27.644Z,11.20
2023-03-06T03:00:55.143Z,9.25
2023-03-06T03:03:22.806Z,8.82
2023-03-06T03:05:52.837Z,8.13
2023-03-06T03:08:21.279Z,9.80
2023-03-06T03:10:49.038Z,8.77
2023-03-06T03:13:19.560Z,9.35
2023-03-06T03:15:58.288Z,8.25
2023-03-06T03:18:26.517Z,8.70
2023-03-06T03:20:54.802Z,8.32
2023-03-06T03:23:23.613Z,9.60
2023-03-06T03:25:51.578Z,6.32
2023-03-06T03:28:20.385Z,9.07
2023-03-06T03:30:48.207Z,8.70
2023-03-06T03:33:16.154Z,7.87
2023-03-06T03:35:43.896Z,10.40
2023-03-06T03:38:11.443Z,8.90
2023-03-06T03:40:39.346Z,8.68
2023-03-06T03:43:06.935Z,9.47
2023-03-06T03:45:34.470Z,9.80
2023-03-06T03:48:03.148Z,10.80
2023-03-06T03:50:31.111Z,8.23
2023-03-06T03:52:58.672Z,8.95
2023-03-06T03:55:26.706Z,8.20
2023-03-06T03:57:54.595Z,7.70
2023-03-06T04:00:22.377Z,9.77
2023-03-06T04:02:52.103Z,11.12
2023-03-06T04:05:20.290Z,7.65
2023-03-06T04:07:49.005Z,8.93
2023-03-06T04:10:17.157Z,8.90
2023-03-06T04:12:45.106Z,9.80
2023-03-06T04:15:12.801Z,9.65
2023-03-06T04:17:40.825Z,7.85
2023-03-06T04:20:09.661Z,9.93
2023-03-06T04:22:37.474Z,7.65
2023-03-06T04:25:05.784Z,11.07
2023-03-06T04:27:33.366Z,8.88
2023-03-06T04:30:01.260Z,10.57
2023-03-06T04:32:32.265Z,9.37
2023-03-06T04:35:00.248Z,10.60
2023-03-06T04:37:29.809Z,9.98
2023-03-06T04:39:58.869Z,9.50
2023-03-06T04:42:26.442Z,9.73
2023-03-06T04:44:53.952Z,9.23
2023-03-06T04:47:21.763Z,11.07
2023-03-06T04:49:49.337Z,8.02
2023-03-06T04:52:16.897Z,9.73
2023-03-06T04:54:46.041Z,11.18
2023-03-06T04:57:14.199Z,10.93
2023-03-06T04:59:41.803Z,9.02
2023-03-06T05:02:09.859Z,11.63
2023-03-06T05:04:37.312Z,8.55
2023-03-06T05:07:04.885Z,8.65
2023-03-06T05:09:34.107Z,8.17
2023-03-06T05:12:02.897Z,10.70
2023-03-06T05:14:30.844Z,9.85
2023-03-06T05:16:58.719Z,10.55
2023-03-06T05:19:26.337Z,11.18
2023-03-06T05:21:53.817Z,12.47
2023-03-06T05:24:21.576Z,9.60
2023-03-06T05:26:49.086Z,10.27
2023-03-06T05:29:16.904Z,9.32
2023-03-06T05:31:45.284Z,10.68
2023-03-06T05:34:16.526Z,14.57
2023-03-06T05:36:44.074Z,10.35
2023-03-06T05:39:11.895Z,10.73
2023-03-06T05:41:39.500Z,11.63
2023-03-06T05:44:07.030Z,11.52
2023-03-06T05:46:34.837Z,11.83
2023-03-06T05:49:02.478Z,9.82
2023-03-06T05:51:30.150Z,10.32
2023-03-06T05:53:58.100Z,12.18
2023-03-06T05:56:25.657Z,11.52
2023-03-06T05:58:53.241Z,12.70
2023-03-06T06:01:21.061Z,11.12
2023-03-06T06:03:48.934Z,12.50
2023-03-06T06:06:16.598Z,13.00
2023-03-06T06:08:44.357Z,9.27
2023-03-06T06:11:13.210Z,11.17
2023-03-06T06:13:41.278Z,16.90
2023-03-06T06:16:15.755Z,9.13
2023-03-06T06:18:43.971Z,10.55
2023-03-06T06:21:13.429Z,11.82
2023-03-06T06:23:42.022Z,11.50
2023-03-06T06:26:10.717Z,13.02
2023-03-06T06:28:38.357Z,13.55
2023-03-06T06:31:12.190Z,10.32
2023-03-06T06:33:41.235Z,11.30
2023-03-06T06:36:19.892Z,12.23
2023-03-06T06:38:48.941Z,15.50
2023-03-06T06:41:42.373Z,15.30
2023-03-06T06:44:08.433Z,11.90
2023-03-06T06:47:20.925Z,12.95
2023-03-06T06:49:25.208Z,12.00
2023-03-06T06:51:52.715Z,12.32
2023-03-06T06:54:22.240Z,13.43
2023-03-06T06:56:50.632Z,13.23
2023-03-06T06:59:18.340Z,14.40
2023-03-06T07:01:46.128Z,13.80
2023-03-06T07:04:14.691Z,13.30
2023-03-06T07:06:42.947Z,14.45
2023-03-06T07:09:11.151Z,13.50
2023-03-06T07:11:39.804Z,12.40
2023-03-06T07:14:07.600Z,12.27
2023-03-06T07:16:35.369Z,11.12
2023-03-06T07:19:03.292Z,14.57
2023-03-06T07:21:30.959Z,14.52
2023-03-06T07:23:58.697Z,11.77
2023-03-06T07:26:27.827Z,11.70
2023-03-06T07:28:55.466Z,14.57
2023-03-06T07:31:26.372Z,14.70
2023-03-06T07:33:54.940Z,12.57
2023-03-06T07:36:23.698Z,12.18
2023-03-06T07:38:51.258Z,11.63
2023-03-06T07:41:22.338Z,12.20
2023-03-06T07:43:50.318Z,11.98
2023-03-06T07:46:18.009Z,13.25
2023-03-06T07:48:46.238Z,14.43
2023-03-06T07:51:16.278Z,18.13
2023-03-06T07:53:44.368Z,13.20
2023-03-06T07:56:12.961Z,11.55
2023-03-06T07:58:42.646Z,16.17
2023-03-06T08:01:13.119Z,15.27
2023-03-06T08:03:41.224Z,15.03
2023-03-06T08:06:10.932Z,13.93
2023-03-06T08:08:39.898Z,15.52
2023-03-06T08:11:09.286Z,12.55
2023-03-06T08:13:36.915Z,19.00
2023-03-06T08:16:04.898Z,17.33
2023-03-06T08:18:33.180Z,15.23
2023-03-06T08:21:02.582Z,15.00
2023-03-06T08:23:31.114Z,19.10
2023-03-06T08:26:00.646Z,19.42
2023-03-06T08:28:28.979Z,14.83
2023-03-06T08:30:57.566Z,13.45
2023-03-06T08:33:25.512Z,19.02
2023-03-06T08:35:52.967Z,15.95
2023-03-06T08:38:20.586Z,16.12
2023-03-06T08:40:48.475Z,15.93
2023-03-06T08:43:16.195Z,15.60
2023-03-06T08:45:43.741Z,17.33
2023-03-06T08:48:11.578Z,18.00
2023-03-06T08:50:40.984Z,14.63
2023-03-06T08:53:08.611Z,16.13
2023-03-06T08:55:38.466Z,14.75
2023-03-06T08:58:06.075Z,13.00
2023-03-06T09:00:34.481Z,15.35
2023-03-06T09:03:02.407Z,16.98
2023-03-06T09:05:30.017Z,16.37
2023-03-06T09:07:57.849Z,14.38
2023-03-06T09:10:26.785Z,15.95
2023-03-06T09:12:55.442Z,14.35
2023-03-06T09:15:24.158Z,19.65
2023-03-06T09:17:52.462Z,15.27
2023-03-06T09:20:20.499Z,12.37
2023-03-06T09:22:48.082Z,13.88
2023-03-06T09:25:21.840Z,12.25
2023-03-06T09:28:01.800Z,12.52
2023-03-06T09:30:33.266Z,12.20
2023-03-06T09:33:00.842Z,14.07
2023-03-06T09:35:28.497Z,12.50
2023-03-06T09:37:56.300Z,12.40
2023-03-06T09:40:44.038Z,13.45
2023-03-06T09:43:19.363Z,12.83
2023-03-06T09:45:46.967Z,13.77
2023-03-06T09:48:15.840Z,14.23
2023-03-06T09:50:51.608Z,15.60
2023-03-06T09:53:42.308Z,13.95
2023-03-06T09:56:15.283Z,15.93
2023-03-06T09:58:48.588Z,13.88
2023-03-06T10:01:23.950Z,18.83
2023-03-06T10:04:10.102Z,16.67
2023-03-06T10:06:53.379Z,15.15
2023-03-06T10:09:42.620Z,14.63
2023-03-06T10:12:24.880Z,15.02
2023-03-06T10:15:01.042Z,15.35
2023-03-06T10:17:34.567Z,14.90
2023-03-06T10:20:29.366Z,18.05
2023-03-06T10:23:24.739Z,18.50
2023-03-06T10:26:03.561Z,13.93
2023-03-06T10:28:42.749Z,15.52
2023-03-06T10:31:17.991Z,16.52
2023-03-06T10:33:48.232Z,14.75
2023-03-06T10:36:17.857Z,16.37
2023-03-06T10:38:48.368Z,16.15
2023-03-06T10:41:22.213Z,14.60
2023-03-06T10:44:04.869Z,15.85
2023-03-06T10:46:35.889Z,15.77
2023-03-06T10:49:27.024Z,16.60
2023-03-06T10:52:10.358Z,15.20
2023-03-06T10:54:41.623Z,16.05
2023-03-06T10:57:30.365Z,13.95
2023-03-06T11:00:08.494Z,17.10
2023-03-06T11:02:40.929Z,17.40
2023-03-06T11:05:21.203Z,20.52
2023-03-06T11:07:57.606Z,17.45
2023-03-06T11:10:26.054Z,20.65
2023-03-06T11:13:21.457Z,19.25
2023-03-06T11:16:26.046Z,17.50
2023-03-06T11:19:07.960Z,17.50
2023-03-06T11:21:36.900Z,19.05
2023-03-06T11:24:08.574Z,16.83
2023-03-06T11:26:45.262Z,17.33
2023-03-06T11:29:18.936Z,16.13
2023-03-06T11:32:00.271Z,20.05
2023-03-06T11:34:39.162Z,17.48
2023-03-06T11:37:10.478Z,20.17
2023-03-06T11:39:45.691Z,17.67
2023-03-06T11:42:25.802Z,17.63
2023-03-06T11:45:13.577Z,17.60
2023-03-06T11:47:45.440Z,22.52
2023-03-06T11:50:19.333Z,16.95
2023-03-06T11:52:51.152Z,16.08
2023-03-06T11:55:53.249Z,14.97
2023-03-06T11:58:33.893Z,16.70
2023-03-06T12:01:11.966Z,17.77
2023-03-06T12:04:06.687Z,16.75
2023-03-06T12:06:37.008Z,16.52
2023-03-06T12:09:14.262Z,17.50
2023-03-06T12:11:44.412Z,17.42
2023-03-06T12:14:18.196Z,16.58
2023-03-06T12:16:48.562Z,19.08
2023-03-06T12:19:30.851Z,15.32
2023-03-06T12:22:10.450Z,19.87
2023-03-06T12:24:40.990Z,17.33
2023-03-06T12:27:18.773Z,15.10
2023-03-06T12:30:09.720Z,17.80
2023-03-06T12:33:03.993Z,17.60
2023-03-06T12:36:04.284Z,17.97
2023-03-06T12:38:54.260Z,23.40
2023-03-06T12:41:37.940Z,26.40
2023-03-06T12:44:17.344Z,19.55
2023-03-06T12:46:47.600Z,23.55
2023-03-06T12:49:38.805Z,16.00
2023-03-06T12:52:08.230Z,17.27
2023-03-06T12:54:38.345Z,16.75
2023-03-06T12:57:07.850Z,17.50
2023-03-06T12:59:44.308Z,20.70
2023-03-06T13:02:30.937Z,22.17
2023-03-06T13:05:05.087Z,16.08
2023-03-06T13:07:52.821Z,20.95
2023-03-06T13:10:23.735Z,15.77
2023-03-06T13:13:05.048Z,17.80
2023-03-06T13:15:32.843Z,18.50
2023-03-06T13:18:00.942Z,21.37
2023-03-06T13:20:45.761Z,18.52
2023-03-06T13:23:32.447Z,17.95
2023-03-06T13:26:25.361Z,15.45
2023-03-06T13:28:54.598Z,18.87
2023-03-06T13:31:53.877Z,19.33
2023-03-06T13:34:41.446Z,18.15
2023-03-06T13:37:23.430Z,18.77
2023-03-06T13:39:54.321Z,19.33
2023-03-06T13:42:27.693Z,16.93
2023-03-06T13:45:12.050Z,18.83
2023-03-06T13:48:15.857Z,20.52
2023-03-06T13:50:45.026Z,19.33
2023-03-06T13:53:33.581Z,17.00
2023-03-06T13:56:29.526Z,18.60
2023-03-06T13:59:14.238Z,16.08
2023-03-06T14:02:01.907Z,21.55
2023-03-06T14:04:34.637Z,17.50
2023-03-06T14:07:06.733Z,21.00
2023-03-06T14:10:09.699Z,20.10
2023-03-06T14:12:40.930Z,20.12
2023-03-06T14:15:24.217Z,17.25
2023-03-06T14:18:05.351Z,21.58
2023-03-06T14:20:38.908Z,17.37
2023-03-06T14:23:18.730Z,20.77
2023-03-06T14:25:48.327Z,20.12
2023-03-06T14:28:24.248Z,20.45
2023-03-06T14:30:53.289Z,22.42
2023-03-06T14:33:50.470Z,19.40
2023-03-06T14:36:20.860Z,19.87
2023-03-06T14:38:53.939Z,20.12
2023-03-06T14:41:32.877Z,19.33
2023-03-06T14:44:29.780Z,18.10
2023-03-06T14:47:31.598Z,18.65
2023-03-06T14:50:21.761Z,20.57
2023-03-06T14:52:51.225Z,18.70
2023-03-06T14:55:21.420Z,18.05
2023-03-06T14:57:58.000Z,22.33
2023-03-06T15:00:37.673Z,17.17
2023-03-06T15:03:08.101Z,21.43
2023-03-06T15:05:35.969Z,20.52
2023-03-06T15:08:06.811Z,20.45
2023-03-06T15:10:36.104Z,18.85
2023-03-06T15:13:22.376Z,20.35
2023-03-06T15:16:08.548Z,22.17
2023-03-06T15:18:59.931Z,21.23
2023-03-06T15:21:31.533Z,23.65
2023-03-06T15:23:59.656Z,19.92
2023-03-06T15:26:36.890Z,19.85
2023-03-06T15:29:11.020Z,23.70
2023-03-06T15:31:43.893Z,24.27
2023-03-06T15:34:14.388Z,19.33
2023-03-06T15:36:48.188Z,19.98
2023-03-06T15:39:30.044Z,21.37
2023-03-06T15:42:16.041Z,19.43
2023-03-06T15:44:47.252Z,20.33
2023-03-06T15:47:14.816Z,21.05
2023-03-06T15:49:42.492Z,18.52
2023-03-06T15:52:10.457Z,20.17
2023-03-06T15:54:38.136Z,23.53
2023-03-06T15:57:06.730Z,19.37
2023-03-06T15:59:41.734Z,19.27
2023-03-06T16:02:18.490Z,20.45
2023-03-06T16:04:46.711Z,20.65
2023-03-06T16:07:14.798Z,21.50
2023-03-06T16:09:42.847Z,20.90
2023-03-06T16:12:18.738Z,22.00
2023-03-06T16:14:50.194Z,22.23
2023-03-06T16:17:18.082Z,19.83
2023-03-06T16:19:45.573Z,21.77
2023-03-06T16:22:13.763Z,22.02
2023-03-06T16:24:41.832Z,21.80
2023-03-06T16:27:16.936Z,20.88
2023-03-06T16:29:44.817Z,21.30
2023-03-06T16:32:12.800Z,19.53
2023-03-06T16:34:40.322Z,18.08
2023-03-06T16:37:10.992Z,19.80
2023-03-06T16:39:38.493Z,20.10
2023-03-06T16:42:06.218Z,24.08
2023-03-06T16:44:34.047Z,20.03
2023-03-06T16:47:01.557Z,19.58
2023-03-06T16:49:29.224Z,19.00
2023-03-06T16:51:57.221Z,19.90
2023-03-06T16:54:26.173Z,24.70
2023-03-06T16:56:53.682Z,22.47
2023-03-06T16:59:21.640Z,23.38
2023-03-06T17:01:49.326Z,20.52
2023-03-06T17:04:16.997Z,22.67
2023-03-06T17:06:44.789Z,22.00
2023-03-06T17:09:14.271Z,18.70
2023-03-06T17:11:44.869Z,21.27
2023-03-06T17:14:12.792Z,24.00
2023-03-06T17:16:40.865Z,23.90
2023-03-06T17:19:08.702Z,21.42
2023-03-06T17:21:38.493Z,19.20
2023-03-06T17:24:10.169Z,20.83
2023-03-06T17:26:38.904Z,22.80
2023-03-06T17:29:07.238Z,21.25
2023-03-06T17:31:35.099Z,21.55
2023-03-06T17:34:03.149Z,27.60
2023-03-06T17:36:31.551Z,24.83
2023-03-06T17:39:00.675Z,24.67
2023-03-06T17:41:29.314Z,24.90
2023-03-06T17:43:58.230Z,29.92
2023-03-06T17:46:26.298Z,34.60
2023-03-06T17:48:55.158Z,30.20
2023-03-06T17:51:22.871Z,34.58
2023-03-06T17:53:52.206Z,34.42
2023-03-06T17:56:20.132Z,46.00
2023-03-06T17:58:47.801Z,42.40
2023-03-06T18:01:18.062Z,41.13
2023-03-06T18:03:47.879Z,43.25
2023-03-06T18:06:16.351Z,45.20
2023-03-06T18:08:44.550Z,29.90
2023-03-06T18:11:13.398Z,29.37
2023-03-06T18:13:43.071Z,26.10
2023-03-06T18:16:13.311Z,34.13
2023-03-06T18:18:41.402Z,31.25
2023-03-06T18:21:11.093Z,33.25
2023-03-06T18:23:39.531Z,30.37
2023-03-06T18:26:13.952Z,28.08
2023-03-06T18:28:44.579Z,29.33
2023-03-06T18:31:34.652Z,30.92
2023-03-06T18:34:05.061Z,26.15
2023-03-06T18:36:33.568Z,26.30
2023-03-06T18:39:03.841Z,24.80
2023-03-06T18:41:31.881Z,28.98
2023-03-06T18:44:00.888Z,28.85
2023-03-06T18:46:36.631Z,25.83
2023-03-06T18:49:04.773Z,27.70
2023-03-06T18:51:32.882Z,27.98
2023-03-06T18:54:01.816Z,22.75
2023-03-06T18:56:30.257Z,22.83
2023-03-06T18:59:05.714Z,28.45
2023-03-06T19:01:34.228Z,30.33
2023-03-06T19:04:03.446Z,28.77
2023-03-06T19:06:31.260Z,31.95
2023-03-06T19:09:01.495Z,30.52
2023-03-06T19:11:29.709Z,25.15
2023-03-06T19:13:57.354Z,85.03
2023-03-06T19:16:29.694Z,62.75
2023-03-06T19:18:59.399Z,30.52
2023-03-06T19:21:28.465Z,27.02
2023-03-06T19:23:56.740Z,22.75
2023-03-06T19:26:24.406Z,25.50
2023-03-06T19:28:55.211Z,21.80
2023-03-06T19:31:26.014Z,22.62
2023-03-06T19:33:54.864Z,26.90
2023-03-06T19:36:27.828Z,32.63
2023-03-06T19:38:57.088Z,28.43
2023-03-06T19:41:25.334Z,27.20
2023-03-06T19:43:55.602Z,25.92
2023-03-06T19:46:23.958Z,25.80
2023-03-06T19:48:56.552Z,30.25
2023-03-06T19:51:25.102Z,26.93
2023-03-06T19:53:52.827Z,30.55
2023-03-06T19:56:22.857Z,27.52
2023-03-06T19:58:51.781Z,27.20
2023-03-06T20:01:21.186Z,30.25
2023-03-06T20:03:50.652Z,28.63
2023-03-06T20:06:19.643Z,24.58
2023-03-06T20:08:47.607Z,30.12
2023-03-06T20:11:17.580Z,27.00
2023-03-06T20:13:47.435Z,26.08
2023-03-06T20:16:17.007Z,25.50
2023-03-06T20:18:45.590Z,21.10
2023-03-06T20:21:13.772Z,25.27
2023-03-06T20:23:41.842Z,25.17
2023-03-06T20:26:11.929Z,21.73
2023-03-06T20:28:41.201Z,24.80
2023-03-06T20:31:11.360Z,23.50
2023-03-06T20:33:39.766Z,24.00
2023-03-06T20:36:16.006Z,23.02
2023-03-06T20:38:44.948Z,24.00
2023-03-06T20:41:20.697Z,25.07
2023-03-06T20:43:49.001Z,27.52
2023-03-06T20:46:17.598Z,25.48
2023-03-06T20:48:47.631Z,24.70
2023-03-06T20:51:22.399Z,26.15
2023-03-06T20:53:51.374Z,24.17
2023-03-06T20:56:21.273Z,20.88
2023-03-06T20:58:48.741Z,22.33
2023-03-06T21:01:24.237Z,23.17
2023-03-06T21:03:52.689Z,24.90
2023-03-06T21:06:20.916Z,25.83
2023-03-06T21:08:49.120Z,21.95
2023-03-06T21:11:17.884Z,27.23
2023-03-06T21:13:45.791Z,33.60
2023-03-06T21:16:15.905Z,30.10
2023-03-06T21:18:44.134Z,30.33
2023-03-06T21:21:20.734Z,30.30
2023-03-06T21:23:49.065Z,27.20
2023-03-06T21:26:21.706Z,29.55
2023-03-06T21:28:49.997Z,27.70
2023-03-06T21:31:19.117Z,26.03
2023-03-06T21:33:47.677Z,27.73
2023-03-06T21:36:16.018Z,25.17
2023-03-06T21:38:43.638Z,30.60
2023-03-06T21:41:25.965Z,25.12
2023-03-06T21:43:58.985Z,26.87
2023-03-06T21:46:27.848Z,29.25
2023-03-06T21:48:57.602Z,28.33
2023-03-06T21:51:26.099Z,31.10
2023-03-06T21:53:54.408Z,30.75
2023-03-06T21:56:24.994Z,31.77
2023-03-06T21:58:53.023Z,25.83
2023-03-06T22:01:23.196Z,25.23
2023-03-06T22:03:51.482Z,26.52
2023-03-06T22:06:21.675Z,28.42
2023-03-06T22:08:49.413Z,30.63
2023-03-06T22:11:19.867Z,30.50
2023-03-06T22:13:48.171Z,27.60
2023-03-06T22:16:16.038Z,28.50
2023-03-06T22:18:52.268Z,25.90
2023-03-06T22:21:21.773Z,25.50
2023-03-06T22:23:53.661Z,24.98
2023-03-06T22:26:21.518Z,25.12
2023-03-06T22:28:49.334Z,25.75
2023-03-06T22:31:23.854Z,27.75
2023-03-06T22:33:55.673Z,29.13
2023-03-06T22:36:24.124Z,27.87
2023-03-06T22:38:58.669Z,28.02
2023-03-06T22:41:27.089Z,28.05
2023-03-06T22:43:57.136Z,27.92
2023-03-06T22:46:25.478Z,30.20
2023-03-06T22:48:56.034Z,29.15
2023-03-06T22:51:23.817Z,29.35
2023-03-06T22:53:51.500Z,30.60
2023-03-06T22:56:20.424Z,29.67
2023-03-06T22:58:48.821Z,30.67
2023-03-06T23:01:18.616Z,26.67
2023-03-06T23:03:48.401Z,30.20
2023-03-06T23:06:25.427Z,25.33
2023-03-06T23:09:04.550Z,29.90
2023-03-06T23:11:32.661Z,28.37
2023-03-06T23:14:22.975Z,32.92
2023-03-06T23:17:09.260Z,29.87
2023-03-06T23:19:55.487Z,28.98
2023-03-06T23:22:41.621Z,28.00
2023-03-06T23:25:27.569Z,29.17
2023-03-06T23:27:55.731Z,31.12
2023-03-06T23:30:23.409Z,28.12
2023-03-06T23:32:50.893Z,26.27
2023-03-06T23:35:18.735Z,27.23
2023-03-06T23:37:49.214Z,31.53
2023-03-06T23:40:17.506Z,29.90
2023-03-06T23:42:45.383Z,25.95
2023-03-06T23:45:12.926Z,32.35
2023-03-06T23:47:40.741Z,33.92
2023-03-06T23:50:09.085Z,28.27
2023-03-06T23:52:36.621Z,24.10
2023-03-06T23:55:05.645Z,25.83
2023-03-06T23:57:33.516Z,28.52
